Norrland — C4KF2 — position and weather

sailwx.info

Track history (hours):
 
Tides and Currents Weather Stations Pressure Air Temp Water Temp Dewpoint Dewpoint Depression Visibility Wind Speed Wind Dir Waves Ship Positions

Norrland

Last reported at 2017-Nov-18 03:52 UTC. Time now 2017-Nov-20 07:48 UTC.
Position N 35°60' W 005°12'.

Length 118 m; draft 6.9 m.

Type: Cargo ship. MMSI: 212521000.

Date/timePositionNaut miles runAvg speedWind from/ knotsBaromVisibWave heightAir tempDewpointWater temp
2017-Nov-18 03:52N 35°60' W 005°12'411.4
2017-Nov-18 03:31N 35°59' W 005°17'611.2
2017-Nov-18 03:00N 35°58' W 005°24'228 8.9
2017-Nov-17 01:16N 37°29' W 009°45'310.8
2017-Nov-17 01:00N 37°32' W 009°46'510.7
2017-Nov-17 00:30N 37°37' W 009°47'510.6
2017-Nov-17 00:00N 37°42' W 009°49'510.9
2017-Nov-16 23:31N 37°47' W 009°50'510.7
2017-Nov-16 23:00N 37°53' W 009°52'510.5
2017-Nov-16 22:30N 37°58' W 009°54'510.4
2017-Nov-16 22:00N 38°03' W 009°55'510.9
2017-Nov-16 21:30N 38°08' W 009°56'510.8
2017-Nov-16 21:00N 38°13' W 009°58'510.8
2017-Nov-16 20:31N 38°19' W 009°60'510.8
2017-Nov-16 20:01N 38°24' W 010°01'610.6
2017-Nov-16 19:29N 38°29' W 010°03'510.4
2017-Nov-16 19:01N 38°34' W 010°04'510.5
2017-Nov-16 18:30N 38°39' W 010°06'510.3
2017-Nov-16 18:00N 38°44' W 010°06'510.3
2017-Nov-16 17:30N 38°50' W 010°06'510.7
2017-Nov-16 17:00N 38°55' W 010°06'611.0
2017-Nov-16 16:30N 39°00' W 010°07'510.8
2017-Nov-16 16:00N 39°06' W 010°06'510.5
2017-Nov-16 15:30N 39°11' W 010°06'510.7
2017-Nov-16 15:01N 39°16' W 010°07'510.6
2017-Nov-16 14:30N 39°22' W 010°07'  
2017-Nov-14 10:16N 48°01' W 006°29'410.0
2017-Nov-14 09:51N 48°05' W 006°26'3410.6
2017-Nov-14 06:37N 48°35' W 006°01'611.3
2017-Nov-14 06:03N 48°40' W 005°57'111.4
2017-Nov-14 05:57N 48°41' W 005°56'1111.2
2017-Nov-14 04:59N 48°51' W 005°48'1410.1
2017-Nov-14 03:33N 48°59' W 005°30'110.0
2017-Nov-14 03:29N 48°59' W 005°29'7 9.7
2017-Nov-14 02:46N 49°03' W 005°20'3 9.3
2017-Nov-14 02:25N 49°05' W 005°15'4 9.2
2017-Nov-14 01:56N 49°07' W 005°09'29 9.2
2017-Nov-13 22:44N 49°22' W 004°32'3 9.9
2017-Nov-13 22:27N 49°24' W 004°28'510.1
2017-Nov-13 22:00N 49°26' W 004°22'20810.4
2017-Nov-13 02:00N 50°41' E 000°42'612.0
2017-Nov-13 01:31N 50°44' E 000°49'612.5
2017-Nov-13 01:00N 50°48' E 000°57'612.8
2017-Nov-13 00:30N 50°52' E 001°05'612.7
2017-Nov-13 00:01N 50°56' E 001°12'712.8
2017-Nov-12 23:30N 51°01' E 001°20'612.5
2017-Nov-12 23:01N 51°04' E 001°28'611.8
2017-Nov-12 22:30N 51°08' E 001°35'510.5
2017-Nov-12 22:00N 51°12' E 001°42'510.3
2017-Nov-12 21:31N 51°15' E 001°47'5 9.8
2017-Nov-12 21:01N 51°19' E 001°52'5 9.7
2017-Nov-12 20:30N 51°23' E 001°56'5 9.8
2017-Nov-12 20:01N 51°28' E 001°60'5 9.7
2017-Nov-12 19:30N 51°31' E 002°04'5 9.8
2017-Nov-12 19:00N 51°35' E 002°09'5 9.9
2017-Nov-12 18:29N 51°39' E 002°15'710.1
2017-Nov-12 17:46N 51°45' E 002°22'310.4
2017-Nov-12 17:30N 51°47' E 002°25'11010.2
2017-Nov-12 06:44N 53°10' E 004°22'143 9.2
2017-Nov-11 15:13N 54°01' E 008°07'2 8.8
2017-Nov-11 15:00N 54°01' E 008°10'4 8.5
2017-Nov-11 14:29N 54°00' E 008°18'4 8.5
2017-Nov-11 14:00N 53°59' E 008°24'4 8.9
2017-Nov-11 13:30N 53°58' E 008°32'5 9.6
2017-Nov-11 13:00N 53°56' E 008°39'510.6
2017-Nov-11 12:30N 53°52' E 008°44'611.8
2017-Nov-11 12:00N 53°51' E 008°54'713.3
2017-Nov-11 11:30N 53°52' E 009°05'3 5.4
2017-Nov-11 11:00N 53°54' E 009°09'1 2.0
2017-Nov-11 10:30N 53°54' E 009°10'4 7.9
2017-Nov-11 10:00N 53°57' E 009°14'4 8.3
2017-Nov-11 09:30N 54°01' E 009°18'2 3.2
2017-Nov-11 08:59N 54°03' E 009°18'3 5.8
2017-Nov-11 08:30N 54°05' E 009°19'4 8.0
2017-Nov-11 08:00N 54°09' E 009°22'4 8.7
2017-Nov-11 07:31N 54°11' E 009°29'3 5.6
2017-Nov-11 07:00N 54°12' E 009°33'0 0.2
2017-Nov-11 06:31N 54°12' E 009°33'2 3.1
2017-Nov-11 06:01N 54°13' E 009°35'4 7.0
2017-Nov-11 05:31N 54°16' E 009°38'4 7.2
2017-Nov-11 05:00N 54°18' E 009°43'4 8.0
2017-Nov-11 04:31N 54°21' E 009°47'7 7.7
2017-Nov-11 03:35N 54°21' E 009°59'16 5.3
2017-Nov-11 00:28N 54°31' E 010°21'4 8.3
2017-Nov-10 23:59N 54°32' E 010°27'4 8.2
2017-Nov-10 23:31N 54°34' E 010°34'4 7.8
2017-Nov-10 23:00N 54°35' E 010°40'4 8.2
2017-Nov-10 22:30N 54°35' E 010°47'4 7.9
2017-Nov-10 22:00N 54°36' E 010°54'4 7.9
2017-Nov-10 21:31N 54°36' E 011°01'4 7.5
2017-Nov-10 21:01N 54°36' E 011°07'4 7.2
2017-Nov-10 20:31N 54°36' E 011°13'3 6.6
2017-Nov-10 20:01N 54°34' E 011°18'4 7.2
2017-Nov-10 19:30N 54°32' E 011°24'4 7.4
2017-Nov-10 19:01N 54°31' E 011°29'4 7.5
2017-Nov-10 18:30N 54°29' E 011°35'4 8.0
2017-Nov-10 18:00N 54°27' E 011°41'4 8.1
2017-Nov-10 17:31N 54°26' E 011°48'4 8.4
2017-Nov-10 17:00N 54°26' E 011°55'4 8.6
2017-Nov-10 16:30N 54°26' E 012°02'4 8.9
2017-Nov-10 16:00N 54°28' E 012°10'5 9.6
2017-Nov-10 15:30N 54°32' E 012°13'83 9.2
2017-Nov-10 06:26N 55°15' E 014°17'510.6
2017-Nov-10 06:00N 55°18' E 014°23'610.7
2017-Nov-10 05:26N 55°23' E 014°29'410.1
2017-Nov-10 05:00N 55°26' E 014°34'510.3
2017-Nov-10 04:30N 55°29' E 014°42'510.3
2017-Nov-10 04:00N 55°31' E 014°50'610.3
2017-Nov-10 03:26N 55°34' E 014°59'410.3
2017-Nov-10 03:00N 55°37' E 015°05'510.1
2017-Nov-10 02:30N 55°39' E 015°13'5 9.9
2017-Nov-10 02:00N 55°42' E 015°20'5 9.9
2017-Nov-10 01:31N 55°44' E 015°28'5 9.7
2017-Nov-10 01:01N 55°47' E 015°36'5 9.6
2017-Nov-10 00:31N 55°49' E 015°43'5 9.3
2017-Nov-10 00:00N 55°51' E 015°50'4 8.9
2017-Nov-09 23:31N 55°54' E 015°57'4 8.8
2017-Nov-09 23:01N 55°56' E 016°04'4 8.6
2017-Nov-09 22:30N 55°58' E 016°10'4 8.4
2017-Nov-09 22:01N 55°60' E 016°17'4 8.3
2017-Nov-09 21:30N 56°02' E 016°23'4 8.2
2017-Nov-09 21:01N 56°04' E 016°29'4 8.3
2017-Nov-09 20:30N 56°06' E 016°36'4 8.5
2017-Nov-09 20:00N 56°09' E 016°42'4 8.8
2017-Nov-09 19:30N 56°11' E 016°48'4 8.5
2017-Nov-09 19:00N 56°14' E 016°55'14 9.1
2017-Nov-09 17:29N 56°22' E 017°15'39 9.6
2017-Nov-09 13:26N 56°46' E 018°11'5 9.4
2017-Nov-09 12:53N 56°49' E 018°19'14 9.6
2017-Nov-09 11:26N 56°55' E 018°42'5 9.7
2017-Nov-09 10:57N 56°57' E 018°49'  
Track history (hours):
 
Tides and Currents Weather Stations Pressure Air Temp Water Temp Dewpoint Dewpoint Depression Visibility Wind Speed Wind Dir Waves Ship Positions

Norrland

Last reported at 2017-Nov-18 03:52 UTC. Time now 2017-Nov-20 07:48 UTC.
Position N 35°60' W 005°12'.

Length 118 m; draft 6.9 m.

Type: Cargo ship. MMSI: 212521000.

Date/timePositionNaut miles runAvg speedWind from/ knotsBaromVisibWave heightAir tempDewpointWater temp
2017-Nov-18 03:52N 35°60' W 005°12'411.4
2017-Nov-18 03:31N 35°59' W 005°17'611.2
2017-Nov-18 03:00N 35°58' W 005°24'228 8.9
2017-Nov-17 01:16N 37°29' W 009°45'310.8
2017-Nov-17 01:00N 37°32' W 009°46'510.7
2017-Nov-17 00:30N 37°37' W 009°47'510.6
2017-Nov-17 00:00N 37°42' W 009°49'510.9
2017-Nov-16 23:31N 37°47' W 009°50'510.7
2017-Nov-16 23:00N 37°53' W 009°52'510.5
2017-Nov-16 22:30N 37°58' W 009°54'510.4
2017-Nov-16 22:00N 38°03' W 009°55'510.9
2017-Nov-16 21:30N 38°08' W 009°56'510.8
2017-Nov-16 21:00N 38°13' W 009°58'510.8
2017-Nov-16 20:31N 38°19' W 009°60'510.8
2017-Nov-16 20:01N 38°24' W 010°01'610.6
2017-Nov-16 19:29N 38°29' W 010°03'510.4
2017-Nov-16 19:01N 38°34' W 010°04'510.5
2017-Nov-16 18:30N 38°39' W 010°06'510.3
2017-Nov-16 18:00N 38°44' W 010°06'510.3
2017-Nov-16 17:30N 38°50' W 010°06'510.7
2017-Nov-16 17:00N 38°55' W 010°06'611.0
2017-Nov-16 16:30N 39°00' W 010°07'510.8
2017-Nov-16 16:00N 39°06' W 010°06'510.5
2017-Nov-16 15:30N 39°11' W 010°06'510.7
2017-Nov-16 15:01N 39°16' W 010°07'510.6
2017-Nov-16 14:30N 39°22' W 010°07'  
2017-Nov-14 10:16N 48°01' W 006°29'410.0
2017-Nov-14 09:51N 48°05' W 006°26'3410.6
2017-Nov-14 06:37N 48°35' W 006°01'611.3
2017-Nov-14 06:03N 48°40' W 005°57'111.4
2017-Nov-14 05:57N 48°41' W 005°56'1111.2
2017-Nov-14 04:59N 48°51' W 005°48'1410.1
2017-Nov-14 03:33N 48°59' W 005°30'110.0
2017-Nov-14 03:29N 48°59' W 005°29'7 9.7
2017-Nov-14 02:46N 49°03' W 005°20'3 9.3
2017-Nov-14 02:25N 49°05' W 005°15'4 9.2
2017-Nov-14 01:56N 49°07' W 005°09'29 9.2
2017-Nov-13 22:44N 49°22' W 004°32'3 9.9
2017-Nov-13 22:27N 49°24' W 004°28'510.1
2017-Nov-13 22:00N 49°26' W 004°22'20810.4
2017-Nov-13 02:00N 50°41' E 000°42'612.0
2017-Nov-13 01:31N 50°44' E 000°49'612.5
2017-Nov-13 01:00N 50°48' E 000°57'612.8
2017-Nov-13 00:30N 50°52' E 001°05'612.7
2017-Nov-13 00:01N 50°56' E 001°12'712.8
2017-Nov-12 23:30N 51°01' E 001°20'612.5
2017-Nov-12 23:01N 51°04' E 001°28'611.8
2017-Nov-12 22:30N 51°08' E 001°35'510.5
2017-Nov-12 22:00N 51°12' E 001°42'510.3
2017-Nov-12 21:31N 51°15' E 001°47'5 9.8
2017-Nov-12 21:01N 51°19' E 001°52'5 9.7
2017-Nov-12 20:30N 51°23' E 001°56'5 9.8
2017-Nov-12 20:01N 51°28' E 001°60'5 9.7
2017-Nov-12 19:30N 51°31' E 002°04'5 9.8
2017-Nov-12 19:00N 51°35' E 002°09'5 9.9
2017-Nov-12 18:29N 51°39' E 002°15'710.1
2017-Nov-12 17:46N 51°45' E 002°22'310.4
2017-Nov-12 17:30N 51°47' E 002°25'11010.2
2017-Nov-12 06:44N 53°10' E 004°22'143 9.2
2017-Nov-11 15:13N 54°01' E 008°07'2 8.8
2017-Nov-11 15:00N 54°01' E 008°10'4 8.5
2017-Nov-11 14:29N 54°00' E 008°18'4 8.5
2017-Nov-11 14:00N 53°59' E 008°24'4 8.9
2017-Nov-11 13:30N 53°58' E 008°32'5 9.6
2017-Nov-11 13:00N 53°56' E 008°39'510.6
2017-Nov-11 12:30N 53°52' E 008°44'611.8
2017-Nov-11 12:00N 53°51' E 008°54'713.3
2017-Nov-11 11:30N 53°52' E 009°05'3 5.4
2017-Nov-11 11:00N 53°54' E 009°09'1 2.0
2017-Nov-11 10:30N 53°54' E 009°10'4 7.9
2017-Nov-11 10:00N 53°57' E 009°14'4 8.3
2017-Nov-11 09:30N 54°01' E 009°18'2 3.2
2017-Nov-11 08:59N 54°03' E 009°18'3 5.8
2017-Nov-11 08:30N 54°05' E 009°19'4 8.0
2017-Nov-11 08:00N 54°09' E 009°22'4 8.7
2017-Nov-11 07:31N 54°11' E 009°29'3 5.6
2017-Nov-11 07:00N 54°12' E 009°33'0 0.2
2017-Nov-11 06:31N 54°12' E 009°33'2 3.1
2017-Nov-11 06:01N 54°13' E 009°35'4 7.0
2017-Nov-11 05:31N 54°16' E 009°38'4 7.2
2017-Nov-11 05:00N 54°18' E 009°43'4 8.0
2017-Nov-11 04:31N 54°21' E 009°47'7 7.7
2017-Nov-11 03:35N 54°21' E 009°59'16 5.3
2017-Nov-11 00:28N 54°31' E 010°21'4 8.3
2017-Nov-10 23:59N 54°32' E 010°27'4 8.2
2017-Nov-10 23:31N 54°34' E 010°34'4 7.8
2017-Nov-10 23:00N 54°35' E 010°40'4 8.2
2017-Nov-10 22:30N 54°35' E 010°47'4 7.9
2017-Nov-10 22:00N 54°36' E 010°54'4 7.9
2017-Nov-10 21:31N 54°36' E 011°01'4 7.5
2017-Nov-10 21:01N 54°36' E 011°07'4 7.2
2017-Nov-10 20:31N 54°36' E 011°13'3 6.6
2017-Nov-10 20:01N 54°34' E 011°18'4 7.2
2017-Nov-10 19:30N 54°32' E 011°24'4 7.4
2017-Nov-10 19:01N 54°31' E 011°29'4 7.5
2017-Nov-10 18:30N 54°29' E 011°35'4 8.0
2017-Nov-10 18:00N 54°27' E 011°41'4 8.1
2017-Nov-10 17:31N 54°26' E 011°48'4 8.4
2017-Nov-10 17:00N 54°26' E 011°55'4 8.6
2017-Nov-10 16:30N 54°26' E 012°02'4 8.9
2017-Nov-10 16:00N 54°28' E 012°10'5 9.6
2017-Nov-10 15:30N 54°32' E 012°13'83 9.2
2017-Nov-10 06:26N 55°15' E 014°17'510.6
2017-Nov-10 06:00N 55°18' E 014°23'610.7
2017-Nov-10 05:26N 55°23' E 014°29'410.1
2017-Nov-10 05:00N 55°26' E 014°34'510.3
2017-Nov-10 04:30N 55°29' E 014°42'510.3
2017-Nov-10 04:00N 55°31' E 014°50'610.3
2017-Nov-10 03:26N 55°34' E 014°59'410.3
2017-Nov-10 03:00N 55°37' E 015°05'510.1
2017-Nov-10 02:30N 55°39' E 015°13'5 9.9
2017-Nov-10 02:00N 55°42' E 015°20'5 9.9
2017-Nov-10 01:31N 55°44' E 015°28'5 9.7
2017-Nov-10 01:01N 55°47' E 015°36'5 9.6
2017-Nov-10 00:31N 55°49' E 015°43'5 9.3
2017-Nov-10 00:00N 55°51' E 015°50'4 8.9
2017-Nov-09 23:31N 55°54' E 015°57'4 8.8
2017-Nov-09 23:01N 55°56' E 016°04'4 8.6
2017-Nov-09 22:30N 55°58' E 016°10'4 8.4
2017-Nov-09 22:01N 55°60' E 016°17'4 8.3
2017-Nov-09 21:30N 56°02' E 016°23'4 8.2
2017-Nov-09 21:01N 56°04' E 016°29'4 8.3
2017-Nov-09 20:30N 56°06' E 016°36'4 8.5
2017-Nov-09 20:00N 56°09' E 016°42'4 8.8
2017-Nov-09 19:30N 56°11' E 016°48'4 8.5
2017-Nov-09 19:00N 56°14' E 016°55'14 9.1
2017-Nov-09 17:29N 56°22' E 017°15'39 9.6
2017-Nov-09 13:26N 56°46' E 018°11'5 9.4
2017-Nov-09 12:53N 56°49' E 018°19'14 9.6
2017-Nov-09 11:26N 56°55' E 018°42'5 9.7
2017-Nov-09 10:57N 56°57' E 018°49'  

Dump ship's entire track history